Time;durP1;ratioP1;P1;durP2;ratioP2;P2;SDS_P1;SDS_P2;PMS_P1;PMS_P2;Temp;Humidity;BMP_temperature;BMP_pressure;BME280_temperature;BME280_humidity;BME280_pressure;Samples;Min_cycle;Max_cycle;Signal;HPM_P1;HPM_P2
2023/08/03 00:01:23;;;;;;;4.03;1.90;;;;;;;;;;5009257;28;20036;-80
2023/08/03 00:03:48;;;;;;;3.80;2.30;;;;;;;;;;5009440;28;20030;-80
2023/08/03 00:06:14;;;;;;;3.75;2.25;;;;;;;;;;5011141;28;20516;-80
2023/08/03 00:08:39;;;;;;;3.78;2.30;;;;;;;;;;5010145;28;20037;-79
2023/08/03 00:11:05;;;;;;;4.50;2.17;;;;;;;;;;5015698;28;20050;-79
2023/08/03 00:13:30;;;;;;;2.58;2.20;;;;;;;;;;5011462;28;20033;-79
2023/08/03 00:15:56;;;;;;;3.60;2.33;;;;;;;;;;5008982;28;20029;-79
2023/08/03 00:18:21;;;;;;;3.58;2.35;;;;;;;;;;5002341;28;20022;-79
2023/08/03 00:20:47;;;;;;;2.40;2.20;;;;;;;;;;4988981;28;20030;-80
2023/08/03 00:23:13;;;;;;;3.55;1.98;;;;;;;;;;4990431;28;20042;-79
2023/08/03 00:25:38;;;;;;;3.35;1.98;;;;;;;;;;4990618;28;20030;-79
2023/08/03 00:28:04;;;;;;;3.33;1.60;;;;;;;;;;4990332;28;20483;-79
2023/08/03 00:30:30;;;;;;;3.42;1.95;;;;;;;;;;4991051;28;20034;-79
2023/08/03 00:32:55;;;;;;;2.35;1.77;;;;;;;;;;4993965;28;20070;-80
2023/08/03 00:35:20;;;;;;;3.30;1.60;;;;;;;;;;4976709;28;20053;-80
2023/08/03 00:37:46;;;;;;;2.33;1.55;;;;;;;;;;4976311;28;20033;-80
2023/08/03 00:40:12;;;;;;;3.53;1.70;;;;;;;;;;4993998;28;20026;-80
2023/08/03 00:42:38;;;;;;;2.30;1.48;;;;;;;;;;4993869;28;20030;-79
2023/08/03 00:45:05;;;;;;;2.17;1.40;;;;;;;;;;4993947;28;20089;-78
2023/08/03 00:47:30;;;;;;;2.08;1.17;;;;;;;;;;4976227;28;20117;-80
2023/08/03 00:49:56;;;;;;;1.70;1.30;;;;;;;;;;4976278;28;20109;-80
2023/08/03 00:52:23;;;;;;;5.13;1.38;;;;;;;;;;4993734;28;20125;-80
2023/08/03 00:54:49;;;;;;;1.52;1.20;;;;;;;;;;4976059;28;20022;-80
2023/08/03 00:57:14;;;;;;;2.72;1.55;;;;;;;;;;4976099;28;20090;-80
2023/08/03 00:59:40;;;;;;;5.55;1.80;;;;;;;;;;4993670;28;20041;-79
2023/08/03 01:02:06;;;;;;;2.33;1.50;;;;;;;;;;4992707;28;20026;-80
2023/08/03 01:04:31;;;;;;;3.75;1.58;;;;;;;;;;4976030;28;20034;-79
2023/08/03 01:06:57;;;;;;;2.10;1.50;;;;;;;;;;4993240;28;20142;-80
2023/08/03 01:09:23;;;;;;;2.00;1.42;;;;;;;;;;4975788;28;20121;-79
2023/08/03 01:11:48;;;;;;;1.48;1.35;;;;;;;;;;4975949;28;20118;-79
2023/08/03 01:14:14;;;;;;;2.15;1.50;;;;;;;;;;4975895;28;20110;-80
2023/08/03 01:16:39;;;;;;;2.35;1.65;;;;;;;;;;4993540;28;20437;-79
2023/08/03 01:19:05;;;;;;;4.25;1.45;;;;;;;;;;4975532;28;20510;-80
2023/08/03 01:21:31;;;;;;;1.38;1.00;;;;;;;;;;4975880;28;20030;-80
2023/08/03 01:23:57;;;;;;;4.82;1.58;;;;;;;;;;4991713;28;20053;-81
2023/08/03 01:26:23;;;;;;;1.33;1.20;;;;;;;;;;4975258;28;20034;-80
2023/08/03 01:28:49;;;;;;;3.38;1.05;;;;;;;;;;4992468;28;20034;-79
2023/08/03 01:31:16;;;;;;;4.25;1.50;;;;;;;;;;4975237;28;20022;-79
2023/08/03 01:33:42;;;;;;;2.80;1.08;;;;;;;;;;4992866;28;20149;-77
2023/08/03 01:36:07;;;;;;;2.60;1.45;;;;;;;;;;4975200;28;20125;-77
2023/08/03 01:38:33;;;;;;;2.67;1.17;;;;;;;;;;4975460;28;20367;-78
2023/08/03 01:40:59;;;;;;;3.92;1.70;;;;;;;;;;4992036;28;20080;-77
2023/08/03 01:43:25;;;;;;;2.55;1.20;;;;;;;;;;4975126;28;20104;-77
2023/08/03 01:45:50;;;;;;;1.85;1.27;;;;;;;;;;4974885;28;20062;-76
2023/08/03 01:48:16;;;;;;;11.63;2.08;;;;;;;;;;4975206;28;20344;-78
2023/08/03 01:50:41;;;;;;;2.15;1.13;;;;;;;;;;4992847;28;20023;-77
2023/08/03 01:53:07;;;;;;;2.33;0.90;;;;;;;;;;4992679;28;20026;-76
2023/08/03 01:55:32;;;;;;;2.08;1.30;;;;;;;;;;4974947;28;20522;-77
2023/08/03 01:57:58;;;;;;;4.40;1.30;;;;;;;;;;4975087;28;20040;-78
2023/08/03 02:00:24;;;;;;;4.10;1.30;;;;;;;;;;4994047;28;20030;-77
2023/08/03 02:02:51;;;;;;;2.15;1.20;;;;;;;;;;4975732;28;20026;-76
2023/08/03 02:05:17;;;;;;;3.20;1.48;;;;;;;;;;4993156;28;20133;-78
2023/08/03 02:07:53;;;;;;;2.97;1.20;;;;;;;;;;4992635;28;20101;-75
2023/08/03 02:10:20;;;;;;;6.28;2.30;;;;;;;;;;4974848;28;20494;-76
2023/08/03 02:12:47;;;;;;;3.13;0.98;;;;;;;;;;4992370;28;20031;-78
2023/08/03 02:15:15;;;;;;;1.80;1.20;;;;;;;;;;4974753;28;20026;-77
2023/08/03 02:17:43;;;;;;;1.63;1.10;;;;;;;;;;4992053;28;20125;-77
2023/08/03 02:20:09;;;;;;;6.32;1.50;;;;;;;;;;4974888;28;20542;-76
2023/08/03 02:22:35;;;;;;;1.73;1.08;;;;;;;;;;4992634;28;20033;-76
2023/08/03 02:25:01;;;;;;;1.98;1.20;;;;;;;;;;4993517;28;20031;-77
2023/08/03 02:27:26;;;;;;;4.45;1.35;;;;;;;;;;4977054;28;20088;-76
2023/08/03 02:29:52;;;;;;;1.67;1.15;;;;;;;;;;4994856;28;20026;-77
2023/08/03 02:32:19;;;;;;;3.80;1.50;;;;;;;;;;4994323;28;20125;-76
2023/08/03 02:34:45;;;;;;;2.38;0.93;;;;;;;;;;4994835;28;20589;-78
2023/08/03 02:37:10;;;;;;;2.22;1.38;;;;;;;;;;4980285;28;20034;-76
2023/08/03 02:39:36;;;;;;;1.88;1.15;;;;;;;;;;4998725;28;20030;-75
2023/08/03 02:42:01;;;;;;;2.50;1.15;;;;;;;;;;4999317;28;20058;-77
2023/08/03 02:44:27;;;;;;;3.45;1.58;;;;;;;;;;4983321;28;20026;-77
2023/08/03 02:46:52;;;;;;;2.47;1.40;;;;;;;;;;4999069;28;20045;-76
2023/08/03 02:49:18;;;;;;;5.15;1.20;;;;;;;;;;4995355;28;20031;-77
2023/08/03 02:51:43;;;;;;;2.08;0.77;;;;;;;;;;4993738;28;20049;-78
2023/08/03 02:54:09;;;;;;;4.50;1.20;;;;;;;;;;4976209;28;20023;-78
2023/08/03 02:56:34;;;;;;;4.45;1.48;;;;;;;;;;4978118;28;20064;-75
2023/08/03 02:59:00;;;;;;;2.25;1.17;;;;;;;;;;4981622;28;20034;-76
2023/08/03 03:01:26;;;;;;;1.00;0.93;;;;;;;;;;4995382;28;20349;-76
2023/08/03 03:03:52;;;;;;;1.25;1.13;;;;;;;;;;4975590;28;20022;-77
2023/08/03 03:06:17;;;;;;;3.20;1.17;;;;;;;;;;4975277;28;20571;-77
2023/08/03 03:08:43;;;;;;;2.85;1.00;;;;;;;;;;4974355;28;20411;-76
2023/08/03 03:11:08;;;;;;;4.70;1.65;;;;;;;;;;4990796;28;20490;-77
2023/08/03 03:13:34;;;;;;;3.83;0.98;;;;;;;;;;4991884;28;20022;-77
2023/08/03 03:15:59;;;;;;;4.32;1.30;;;;;;;;;;4992164;28;20495;-78
2023/08/03 03:18:25;;;;;;;4.53;1.50;;;;;;;;;;4975145;28;20030;-76
2023/08/03 03:20:50;;;;;;;4.70;1.70;;;;;;;;;;4992307;28;20048;-76
2023/08/03 03:23:16;;;;;;;2.65;1.48;;;;;;;;;;4976019;28;20510;-76
2023/08/03 03:25:41;;;;;;;2.13;1.33;;;;;;;;;;4990941;28;20473;-76
2023/08/03 03:28:07;;;;;;;2.70;1.10;;;;;;;;;;4996202;28;20037;-77
2023/08/03 03:30:32;;;;;;;2.00;1.33;;;;;;;;;;5015314;28;20048;-77
2023/08/03 03:32:58;;;;;;;4.00;1.25;;;;;;;;;;5008866;28;20066;-78
2023/08/03 03:35:24;;;;;;;3.17;1.85;;;;;;;;;;5022533;28;20021;-76
2023/08/03 03:37:50;;;;;;;3.75;1.27;;;;;;;;;;5011758;28;20038;-76
2023/08/03 03:40:16;;;;;;;6.80;2.10;;;;;;;;;;5009180;28;20033;-78
2023/08/03 03:42:41;;;;;;;2.65;1.30;;;;;;;;;;5010393;28;20018;-78
2023/08/03 03:45:07;;;;;;;4.32;2.13;;;;;;;;;;5010362;28;20509;-76
2023/08/03 03:47:33;;;;;;;3.75;1.15;;;;;;;;;;5010467;28;20030;-75
2023/08/03 03:49:59;;;;;;;2.50;1.20;;;;;;;;;;5008968;28;20103;-77
2023/08/03 03:52:24;;;;;;;5.55;1.40;;;;;;;;;;5010652;28;20033;-76
2023/08/03 03:54:50;;;;;;;3.55;1.52;;;;;;;;;;5009211;28;20037;-76
2023/08/03 03:57:15;;;;;;;3.58;1.55;;;;;;;;;;5009025;28;20354;-77
2023/08/03 03:59:41;;;;;;;4.95;2.30;;;;;;;;;;5010606;28;20083;-78
2023/08/03 04:02:06;;;;;;;4.22;2.10;;;;;;;;;;5010420;28;20026;-76
2023/08/03 04:04:32;;;;;;;2.40;1.58;;;;;;;;;;5009519;28;20383;-76
2023/08/03 04:06:57;;;;;;;3.47;1.30;;;;;;;;;;5012972;28;20026;-78
2023/08/03 04:09:23;;;;;;;4.10;1.73;;;;;;;;;;5013016;28;20510;-78
2023/08/03 04:11:48;;;;;;;25.17;3.10;;;;;;;;;;5012828;28;20036;-77
2023/08/03 04:14:14;;;;;;;7.70;3.28;;;;;;;;;;5012872;28;20077;-78
2023/08/03 04:16:39;;;;;;;2.88;1.40;;;;;;;;;;5014499;28;20728;-78
2023/08/03 04:19:05;;;;;;;5.10;1.73;;;;;;;;;;5012979;28;20061;-76
2023/08/03 04:21:30;;;;;;;13.70;2.53;;;;;;;;;;5014195;28;20105;-78
2023/08/03 04:23:56;;;;;;;7.60;1.83;;;;;;;;;;5012905;28;20471;-76
2023/08/03 04:26:21;;;;;;;10.43;2.35;;;;;;;;;;5014995;28;20044;-77
2023/08/03 04:28:47;;;;;;;14.68;4.35;;;;;;;;;;5014890;28;20101;-76
2023/08/03 04:31:12;;;;;;;5.13;1.70;;;;;;;;;;5014617;28;20033;-76
2023/08/03 04:33:38;;;;;;;5.93;2.10;;;;;;;;;;5016306;28;20018;-77
2023/08/03 04:36:04;;;;;;;8.38;1.30;;;;;;;;;;5015305;28;20037;-76
2023/08/03 04:38:29;;;;;;;6.22;1.98;;;;;;;;;;4997173;28;20030;-77
2023/08/03 04:40:55;;;;;;;5.05;1.42;;;;;;;;;;5001747;28;20045;-77
2023/08/03 04:43:20;;;;;;;5.53;1.55;;;;;;;;;;5016600;28;20084;-76
2023/08/03 04:45:46;;;;;;;7.78;1.73;;;;;;;;;;5014549;28;20470;-75
2023/08/03 04:48:12;;;;;;;3.88;1.50;;;;;;;;;;4996856;28;20022;-76
2023/08/03 04:50:38;;;;;;;5.63;1.70;;;;;;;;;;5014252;28;20032;-78
2023/08/03 04:53:03;;;;;;;5.45;1.77;;;;;;;;;;4998048;28;20026;-77
2023/08/03 04:55:29;;;;;;;3.60;1.50;;;;;;;;;;4994036;28;20439;-76
2023/08/03 04:57:55;;;;;;;10.90;1.90;;;;;;;;;;4976275;28;20026;-77
2023/08/03 05:00:20;;;;;;;5.03;1.33;;;;;;;;;;4976084;28;20018;-77
2023/08/03 05:02:46;;;;;;;8.23;1.65;;;;;;;;;;4993735;28;20364;-76
2023/08/03 05:05:11;;;;;;;2.97;1.40;;;;;;;;;;4993637;28;20026;-74
2023/08/03 05:07:38;;;;;;;6.28;2.60;;;;;;;;;;5009116;28;20430;-76
2023/08/03 05:10:04;;;;;;;2.65;1.23;;;;;;;;;;4993453;28;20600;-78
2023/08/03 05:12:29;;;;;;;5.32;1.48;;;;;;;;;;4996193;28;20030;-77
2023/08/03 05:14:55;;;;;;;5.03;2.05;;;;;;;;;;5021934;28;20022;-76
2023/08/03 05:17:20;;;;;;;6.28;2.33;;;;;;;;;;5007987;28;20038;-77
2023/08/03 05:19:47;;;;;;;7.05;1.63;;;;;;;;;;4986811;28;20938;-76
2023/08/03 05:22:12;;;;;;;4.03;1.73;;;;;;;;;;4999846;28;20038;-76
2023/08/03 05:24:39;;;;;;;6.95;1.23;;;;;;;;;;4983665;28;20107;-74
2023/08/03 05:27:05;;;;;;;4.97;1.80;;;;;;;;;;4998051;28;20586;-78
2023/08/03 05:29:31;;;;;;;7.55;2.38;;;;;;;;;;5000291;28;20022;-77
2023/08/03 05:31:57;;;;;;;4.88;1.52;;;;;;;;;;4995518;28;20054;-79
2023/08/03 05:34:24;;;;;;;3.72;1.60;;;;;;;;;;5010159;28;20788;-80
2023/08/03 05:36:52;;;;;;;3.95;1.65;;;;;;;;;;5004068;28;20072;-78
2023/08/03 05:39:18;;;;;;;7.28;1.85;;;;;;;;;;4989724;28;20037;-78
2023/08/03 05:41:44;;;;;;;5.60;1.67;;;;;;;;;;4985921;28;20058;-78
2023/08/03 05:44:12;;;;;;;7.30;1.92;;;;;;;;;;4979453;28;20045;-77
2023/08/03 05:46:37;;;;;;;3.72;1.17;;;;;;;;;;5002980;28;20814;-77
2023/08/03 05:49:04;;;;;;;5.20;1.42;;;;;;;;;;5009393;28;20117;-78
2023/08/03 05:51:31;;;;;;;2.88;1.15;;;;;;;;;;4987292;28;20059;-77
2023/08/03 05:53:57;;;;;;;4.00;1.17;;;;;;;;;;5008213;28;20140;-77
2023/08/03 05:56:24;;;;;;;1.58;1.02;;;;;;;;;;4987240;28;20433;-79
2023/08/03 05:58:50;;;;;;;3.15;1.00;;;;;;;;;;4994300;28;20109;-79
2023/08/03 06:01:23;;;;;;;4.40;1.50;;;;;;;;;;4993409;28;20165;-79
2023/08/03 06:03:53;;;;;;;5.40;2.20;;;;;;;;;;4989854;28;20031;-78
2023/08/03 06:06:20;;;;;;;6.55;2.00;;;;;;;;;;5002058;28;20355;-77
2023/08/03 06:08:49;;;;;;;6.30;1.35;;;;;;;;;;4986042;28;20175;-75
2023/08/03 06:11:17;;;;;;;3.22;1.00;;;;;;;;;;4999378;28;20475;-77
2023/08/03 06:13:43;;;;;;;12.95;3.78;;;;;;;;;;4990313;28;20038;-78
2023/08/03 06:16:11;;;;;;;7.40;2.40;;;;;;;;;;5007786;28;20029;-80
2023/08/03 06:18:55;;;;;;;11.13;1.58;;;;;;;;;;4996446;28;20049;-81
2023/08/03 06:21:23;;;;;;;5.60;1.35;;;;;;;;;;5004379;28;20090;-81
2023/08/03 06:23:57;;;;;;;13.10;1.88;;;;;;;;;;5007218;28;20442;-77
2023/08/03 06:26:24;;;;;;;9.05;1.40;;;;;;;;;;4987174;28;20030;-79
2023/08/03 06:28:53;;;;;;;6.93;1.40;;;;;;;;;;5002881;28;20030;-79
2023/08/03 06:31:23;;;;;;;10.32;1.77;;;;;;;;;;4978469;28;20021;-77
2023/08/03 06:33:49;;;;;;;8.75;2.10;;;;;;;;;;4992689;28;20025;-78
2023/08/03 06:36:28;;;;;;;4.03;1.27;;;;;;;;;;4990859;28;20018;-76
2023/08/03 06:38:57;;;;;;;10.05;1.67;;;;;;;;;;5003132;28;20587;-78
2023/08/03 06:41:24;;;;;;;5.80;1.40;;;;;;;;;;4998502;28;20022;-78
2023/08/03 06:43:50;;;;;;;3.58;1.50;;;;;;;;;;4981699;28;20121;-80
2023/08/03 06:46:15;;;;;;;2.50;0.90;;;;;;;;;;4993989;28;20026;-79
2023/08/03 06:48:41;;;;;;;5.43;1.52;;;;;;;;;;4986092;28;20317;-76
2023/08/03 06:51:07;;;;;;;4.10;1.38;;;;;;;;;;5012643;28;20013;-80
2023/08/03 06:53:32;;;;;;;5.78;1.65;;;;;;;;;;4997632;28;20049;-79
2023/08/03 06:55:58;;;;;;;3.28;1.23;;;;;;;;;;5002533;28;20029;-77
2023/08/03 06:58:24;;;;;;;2.25;0.85;;;;;;;;;;5008226;28;20033;-78
2023/08/03 07:00:50;;;;;;;2.35;0.90;;;;;;;;;;4998218;28;20029;-78
2023/08/03 07:03:15;;;;;;;5.00;1.02;;;;;;;;;;4999628;28;20482;-77
2023/08/03 07:05:42;;;;;;;3.10;0.93;;;;;;;;;;4982656;28;20029;-77
2023/08/03 07:08:08;;;;;;;3.38;0.85;;;;;;;;;;4988726;28;20033;-77
2023/08/03 07:10:36;;;;;;;9.35;0.95;;;;;;;;;;4977751;28;20720;-79
2023/08/03 07:13:03;;;;;;;5.10;0.68;;;;;;;;;;4994522;28;20852;-78
2023/08/03 07:15:33;;;;;;;3.17;1.13;;;;;;;;;;4978617;28;20104;-79
2023/08/03 07:18:20;;;;;;;5.97;1.53;;;;;;;;;;4973953;28;20041;-79
2023/08/03 07:20:47;;;;;;;2.78;0.80;;;;;;;;;;5001518;28;20379;-77
2023/08/03 07:23:13;;;;;;;2.92;1.23;;;;;;;;;;4998436;28;20478;-77
2023/08/03 07:25:39;;;;;;;4.03;0.85;;;;;;;;;;4984695;28;20183;-78
2023/08/03 07:28:06;;;;;;;4.22;0.90;;;;;;;;;;5004750;28;20074;-78
2023/08/03 07:30:35;;;;;;;4.38;0.90;;;;;;;;;;5004459;28;20121;-76
2023/08/03 07:33:09;;;;;;;2.28;0.80;;;;;;;;;;4975402;28;20097;-78
2023/08/03 07:35:58;;;;;;;4.03;0.73;;;;;;;;;;4989579;28;20034;-80
2023/08/03 07:38:24;;;;;;;6.10;1.17;;;;;;;;;;4986889;28;20038;-77
2023/08/03 07:40:49;;;;;;;3.58;0.68;;;;;;;;;;4983013;28;20029;-79
2023/08/03 07:43:15;;;;;;;0.98;0.57;;;;;;;;;;4972245;28;20442;-78
2023/08/03 07:45:40;;;;;;;1.85;0.80;;;;;;;;;;5002547;28;20041;-76
2023/08/03 07:48:06;;;;;;;2.55;0.60;;;;;;;;;;4995605;28;20483;-79
2023/08/03 07:50:31;;;;;;;2.70;0.70;;;;;;;;;;4985197;28;20271;-78
2023/08/03 07:52:57;;;;;;;6.07;1.00;;;;;;;;;;4966498;28;20030;-79
2023/08/03 07:55:23;;;;;;;6.30;0.88;;;;;;;;;;4967605;28;20035;-77
2023/08/03 07:57:48;;;;;;;8.15;0.80;;;;;;;;;;4976258;28;20506;-77
2023/08/03 08:00:14;;;;;;;1.98;0.75;;;;;;;;;;4965914;28;20026;-76
2023/08/03 08:02:40;;;;;;;3.33;0.98;;;;;;;;;;4965072;28;20137;-77
2023/08/03 08:05:09;;;;;;;3.88;0.93;;;;;;;;;;4989536;28;20041;-78
2023/08/03 08:07:35;;;;;;;2.00;0.50;;;;;;;;;;4997200;28;20034;-78
2023/08/03 08:10:00;;;;;;;2.90;0.60;;;;;;;;;;4962797;28;20336;-78
2023/08/03 08:12:26;;;;;;;5.15;0.70;;;;;;;;;;4958401;28;20365;-77
2023/08/03 08:14:51;;;;;;;3.15;0.63;;;;;;;;;;4977711;28;20137;-76
2023/08/03 08:17:17;;;;;;;4.15;1.00;;;;;;;;;;4982364;28;20027;-80
2023/08/03 08:19:43;;;;;;;1.58;0.90;;;;;;;;;;4967278;28;20045;-78
2023/08/03 08:22:11;;;;;;;2.63;0.73;;;;;;;;;;4976939;28;20329;-81
2023/08/03 08:24:36;;;;;;;3.75;0.70;;;;;;;;;;4982521;28;20030;-77
2023/08/03 08:27:02;;;;;;;1.77;0.60;;;;;;;;;;4983885;28;20058;-75
2023/08/03 08:29:28;;;;;;;6.18;0.95;;;;;;;;;;4985004;28;20643;-77
2023/08/03 08:31:53;;;;;;;3.13;0.60;;;;;;;;;;4982033;28;20502;-78
2023/08/03 08:34:19;;;;;;;1.00;0.40;;;;;;;;;;5007786;28;20018;-78
2023/08/03 08:36:44;;;;;;;4.53;0.88;;;;;;;;;;5009956;28;20034;-77
2023/08/03 08:39:10;;;;;;;4.82;1.13;;;;;;;;;;5000964;28;20030;-79
2023/08/03 08:41:40;;;;;;;3.88;0.82;;;;;;;;;;4996977;28;20029;-77
2023/08/03 08:44:06;;;;;;;3.80;0.60;;;;;;;;;;4998734;28;20479;-78
2023/08/03 08:46:31;;;;;;;3.20;0.65;;;;;;;;;;4996736;28;20045;-78
2023/08/03 08:48:57;;;;;;;2.75;0.77;;;;;;;;;;5000946;28;20041;-78
2023/08/03 08:51:23;;;;;;;5.40;0.65;;;;;;;;;;5001445;28;20061;-78
2023/08/03 08:53:53;;;;;;;5.35;1.27;;;;;;;;;;5000772;28;20033;-80
2023/08/03 08:56:19;;;;;;;2.83;0.70;;;;;;;;;;5003282;28;20454;-78
2023/08/03 08:58:45;;;;;;;5.15;0.88;;;;;;;;;;5001829;28;20565;-79
2023/08/03 09:01:10;;;;;;;3.53;0.82;;;;;;;;;;5002833;28;20150;-79
2023/08/03 09:03:52;;;;;;;2.05;0.90;;;;;;;;;;5016513;28;20061;-80
2023/08/03 09:06:23;;;;;;;;;;;;;;;;;;5018172;28;20033;-77
2023/08/03 09:08:53;;;;;;;2.58;0.80;;;;;;;;;;5014728;28;20021;-79
2023/08/03 09:11:35;;;;;;;8.25;1.85;;;;;;;;;;4997874;28;20044;-78
2023/08/03 09:14:05;;;;;;;2.25;0.50;;;;;;;;;;5000215;28;20464;-79
2023/08/03 09:16:31;;;;;;;1.70;0.65;;;;;;;;;;5000775;28;20044;-79
2023/08/03 09:18:57;;;;;;;3.22;0.70;;;;;;;;;;4999798;28;20048;-79
2023/08/03 09:21:23;;;;;;;1.60;0.50;;;;;;;;;;4997345;28;20021;-78
2023/08/03 09:23:49;;;;;;;5.32;0.68;;;;;;;;;;5008878;28;20349;-78
2023/08/03 09:26:21;;;;;;;3.22;0.70;;;;;;;;;;5000874;28;20431;-77
2023/08/03 09:28:47;;;;;;;1.95;0.60;;;;;;;;;;4997794;28;20034;-76
2023/08/03 09:31:21;;;;;;;2.78;0.52;;;;;;;;;;4999843;28;20092;-76
2023/08/03 09:33:55;;;;;;;1.55;0.80;;;;;;;;;;4979764;28;20113;-76
2023/08/03 09:36:20;;;;;;;1.92;0.40;;;;;;;;;;5000674;28;20056;-78
2023/08/03 09:38:46;;;;;;;3.47;0.60;;;;;;;;;;4994305;28;20030;-78
2023/08/03 09:41:12;;;;;;;2.80;0.43;;;;;;;;;;4983515;28;20045;-75
2023/08/03 09:43:40;;;;;;;3.47;0.50;;;;;;;;;;4998471;28;20108;-77
2023/08/03 09:46:07;;;;;;;1.40;0.50;;;;;;;;;;4971407;28;20052;-78
2023/08/03 09:48:35;;;;;;;2.00;0.60;;;;;;;;;;4993183;28;20041;-78
2023/08/03 09:51:03;;;;;;;2.88;0.40;;;;;;;;;;4999952;28;20068;-78
2023/08/03 09:53:38;;;;;;;1.92;0.47;;;;;;;;;;5007132;28;20095;-79
2023/08/03 09:56:05;;;;;;;2.55;0.60;;;;;;;;;;4986435;28;20191;-77
2023/08/03 09:58:54;;;;;;;3.88;0.60;;;;;;;;;;4982319;28;20113;-80
2023/08/03 10:01:27;;;;;;;1.75;0.90;;;;;;;;;;5008636;28;20025;-82
2023/08/03 10:04:00;;;;;;;0.90;0.30;;;;;;;;;;4989807;28;20117;-79
2023/08/03 10:06:27;;;;;;;1.08;0.55;;;;;;;;;;5002782;28;20025;-80
2023/08/03 10:09:00;;;;;;;6.90;0.77;;;;;;;;;;5006471;28;20072;-79
2023/08/03 10:11:31;;;;;;;1.48;0.43;;;;;;;;;;5025079;28;20080;-78
2023/08/03 10:14:01;;;;;;;;;;;;;;;;;;5001372;28;20357;-77
2023/08/03 10:16:28;;;;;;;1.08;0.75;;;;;;;;;;5008348;28;19971;-80
2023/08/03 10:18:55;;;;;;;1.73;0.63;;;;;;;;;;4987286;28;20033;-77
2023/08/03 10:21:21;;;;;;;3.90;0.55;;;;;;;;;;4984795;28;20033;-78
2023/08/03 10:24:09;;;;;;;1.70;0.50;;;;;;;;;;4980226;28;20025;-77
2023/08/03 10:26:36;;;;;;;2.95;0.60;;;;;;;;;;4999657;28;20055;-80
2023/08/03 10:29:04;;;;;;;1.58;0.68;;;;;;;;;;4993199;28;20502;-79
2023/08/03 10:31:31;;;;;;;6.45;0.70;;;;;;;;;;4985483;28;20565;-78
2023/08/03 10:34:02;;;;;;;3.92;0.50;;;;;;;;;;5005704;28;20072;-76
2023/08/03 10:36:31;;;;;;;3.97;0.50;;;;;;;;;;4996127;28;20033;-78
2023/08/03 10:39:03;;;;;;;0.22;0.22;;;;;;;;;;5014402;28;20055;-79
2023/08/03 10:41:36;;;;;;;2.00;0.30;;;;;;;;;;4997028;28;20353;-80
2023/08/03 10:44:05;;;;;;;1.95;0.30;;;;;;;;;;5001424;28;20525;-79
2023/08/03 10:46:56;;;;;;;3.20;0.55;;;;;;;;;;4994915;28;20116;-79
2023/08/03 10:49:22;;;;;;;;;;;;;;;;;;5009631;28;20026;-79
2023/08/03 10:51:53;;;;;;;1.08;0.40;;;;;;;;;;5003395;28;19941;-80
2023/08/03 10:54:28;;;;;;;;;;;;;;;;;;5002572;28;20057;-79
2023/08/03 10:57:07;;;;;;;1.48;0.40;;;;;;;;;;4999893;28;19913;-77
2023/08/03 10:59:37;;;;;;;1.83;0.50;;;;;;;;;;4997737;28;20403;-79
2023/08/03 11:02:20;;;;;;;2.67;0.43;;;;;;;;;;5010791;28;20462;-78
2023/08/03 11:04:46;;;;;;;0.55;0.40;;;;;;;;;;4997724;28;20031;-78
2023/08/03 11:07:16;;;;;;;1.63;0.30;;;;;;;;;;5002445;28;20454;-79
2023/08/03 11:09:45;;;;;;;6.32;0.52;;;;;;;;;;5001718;28;20034;-78
2023/08/03 11:12:10;;;;;;;3.40;0.55;;;;;;;;;;4996218;28;20037;-78
2023/08/03 11:14:36;;;;;;;2.95;0.52;;;;;;;;;;4999116;28;20053;-77
2023/08/03 11:17:02;;;;;;;2.30;0.55;;;;;;;;;;5003152;28;20110;-78
2023/08/03 11:19:32;;;;;;;2.13;0.47;;;;;;;;;;5010368;28;20049;-78
2023/08/03 11:22:01;;;;;;;6.40;0.70;;;;;;;;;;5011519;28;20286;-78
2023/08/03 11:24:32;;;;;;;1.13;0.45;;;;;;;;;;5011973;28;20042;-77
2023/08/03 11:26:59;;;;;;;4.57;0.60;;;;;;;;;;5004409;28;20040;-77
2023/08/03 11:29:25;;;;;;;6.35;0.60;;;;;;;;;;5002282;28;20045;-78
2023/08/03 11:31:51;;;;;;;1.13;0.57;;;;;;;;;;5006172;28;20064;-78
2023/08/03 11:34:18;;;;;;;2.80;0.70;;;;;;;;;;5005662;28;20406;-79
2023/08/03 11:36:48;;;;;;;1.88;0.50;;;;;;;;;;4999353;28;20037;-77
2023/08/03 11:39:14;;;;;;;3.27;0.20;;;;;;;;;;4994419;28;20132;-77
2023/08/03 11:41:42;;;;;;;4.40;0.70;;;;;;;;;;4982588;28;20120;-78
2023/08/03 11:44:08;;;;;;;2.28;0.50;;;;;;;;;;4978803;28;20037;-79
2023/08/03 11:46:34;;;;;;;2.55;0.43;;;;;;;;;;4970664;28;20030;-78
2023/08/03 11:49:02;;;;;;;1.50;0.45;;;;;;;;;;5000667;28;20429;-78
2023/08/03 11:51:36;;;;;;;2.40;0.40;;;;;;;;;;5005099;28;20200;-77
2023/08/03 11:54:04;;;;;;;2.75;0.65;;;;;;;;;;5021943;28;20022;-75
2023/08/03 11:56:32;;;;;;;2.13;0.30;;;;;;;;;;5005218;28;20057;-80
2023/08/03 11:58:58;;;;;;;0.40;0.32;;;;;;;;;;5016759;28;20128;-73
2023/08/03 12:01:30;;;;;;;5.18;0.40;;;;;;;;;;5017591;28;20553;-78
2023/08/03 12:04:07;;;;;;;3.10;0.38;;;;;;;;;;5009528;28;20037;-76
2023/08/03 12:06:51;;;;;;;2.72;0.40;;;;;;;;;;4985247;28;20058;-77
2023/08/03 12:09:29;;;;;;;0.93;0.28;;;;;;;;;;4986403;28;20057;-80
2023/08/03 12:12:07;;;;;;;3.03;0.40;;;;;;;;;;4992099;28;20033;-80
2023/08/03 12:14:33;;;;;;;0.70;0.30;;;;;;;;;;5009139;28;20080;-78
2023/08/03 12:16:59;;;;;;;2.22;0.50;;;;;;;;;;4998584;28;20037;-79
2023/08/03 12:19:32;;;;;;;5.35;0.40;;;;;;;;;;5009176;28;20104;-81
2023/08/03 12:22:01;;;;;;;3.10;0.50;;;;;;;;;;5010799;28;20108;-78
2023/08/03 12:24:28;;;;;;;1.38;0.30;;;;;;;;;;5007134;28;20046;-78
2023/08/03 12:27:01;;;;;;;1.40;0.40;;;;;;;;;;5023957;28;20047;-79
2023/08/03 12:29:27;;;;;;;0.20;0.20;;;;;;;;;;5025834;28;20033;-79
2023/08/03 12:31:56;;;;;;;1.63;0.30;;;;;;;;;;5013356;28;20512;-78
2023/08/03 12:34:26;;;;;;;5.10;0.88;;;;;;;;;;5018238;28;20044;-77
2023/08/03 12:36:52;;;;;;;0.70;0.30;;;;;;;;;;5020292;28;20099;-79
2023/08/03 12:39:24;;;;;;;1.20;0.05;;;;;;;;;;5029929;28;20034;-78
2023/08/03 12:41:49;;;;;;;1.77;0.30;;;;;;;;;;4996643;28;20076;-78
2023/08/03 12:44:21;;;;;;;3.55;0.30;;;;;;;;;;5011750;28;20065;-77
2023/08/03 12:46:47;;;;;;;2.22;0.30;;;;;;;;;;5004597;28;20034;-79
2023/08/03 12:49:15;;;;;;;0.47;0.30;;;;;;;;;;5011001;28;20029;-78
2023/08/03 12:51:41;;;;;;;1.05;0.30;;;;;;;;;;5022774;28;20030;-78
2023/08/03 12:54:08;;;;;;;2.25;0.63;;;;;;;;;;5001855;28;20018;-79
2023/08/03 12:56:38;;;;;;;3.63;0.73;;;;;;;;;;5003562;28;20045;-78
2023/08/03 12:59:05;;;;;;;0.37;0.20;;;;;;;;;;5007725;28;20092;-80
2023/08/03 13:01:31;;;;;;;3.83;0.50;;;;;;;;;;5024956;28;20279;-78
2023/08/03 13:04:00;;;;;;;4.40;0.40;;;;;;;;;;5017152;28;20094;-78
2023/08/03 13:06:27;;;;;;;0.90;0.55;;;;;;;;;;5040819;28;20030;-78
2023/08/03 13:08:53;;;;;;;0.85;0.30;;;;;;;;;;5027732;28;20033;-79
2023/08/03 13:11:20;;;;;;;4.28;0.70;;;;;;;;;;5022923;28;20056;-78
2023/08/03 13:13:51;;;;;;;1.45;0.43;;;;;;;;;;5008371;28;20033;-79
2023/08/03 13:16:19;;;;;;;1.90;0.30;;;;;;;;;;4998946;28;20474;-78
2023/08/03 13:18:46;;;;;;;2.63;0.30;;;;;;;;;;5009796;28;20368;-78
2023/08/03 13:21:12;;;;;;;0.30;0.20;;;;;;;;;;5002633;28;20104;-78
2023/08/03 13:23:39;;;;;;;2.72;0.30;;;;;;;;;;5003955;28;20072;-79
2023/08/03 13:26:09;;;;;;;0.57;0.38;;;;;;;;;;5010210;28;20036;-79
2023/08/03 13:28:40;;;;;;;1.58;0.35;;;;;;;;;;5000760;28;20368;-79
2023/08/03 13:31:06;;;;;;;1.38;0.30;;;;;;;;;;5004432;28;20042;-77
2023/08/03 13:33:39;;;;;;;0.73;0.30;;;;;;;;;;4993026;28;20113;-79
2023/08/03 13:36:06;;;;;;;0.38;0.28;;;;;;;;;;4986468;28;20014;-79
2023/08/03 13:38:32;;;;;;;1.20;0.30;;;;;;;;;;5004742;28;20038;-79
2023/08/03 13:41:00;;;;;;;5.60;0.50;;;;;;;;;;4982088;28;20034;-79
2023/08/03 13:43:34;;;;;;;0.45;0.38;;;;;;;;;;5001729;28;20027;-79
2023/08/03 13:46:00;;;;;;;4.13;0.85;;;;;;;;;;4978050;28;20046;-79
2023/08/03 13:48:30;;;;;;;1.65;0.40;;;;;;;;;;4992575;28;20037;-78
2023/08/03 13:50:57;;;;;;;1.02;0.30;;;;;;;;;;4974725;28;20374;-77
2023/08/03 13:53:23;;;;;;;2.17;0.30;;;;;;;;;;4974392;28;20092;-78
2023/08/03 13:55:49;;;;;;;0.93;0.43;;;;;;;;;;4992362;28;20104;-78
2023/08/03 13:58:14;;;;;;;1.17;0.30;;;;;;;;;;4975195;28;20041;-78
2023/08/03 14:00:41;;;;;;;3.22;0.45;;;;;;;;;;4974659;28;20026;-78
2023/08/03 14:03:06;;;;;;;5.60;0.57;;;;;;;;;;4990790;28;20029;-80
2023/08/03 14:05:32;;;;;;;1.27;0.22;;;;;;;;;;4969452;28;20495;-78
2023/08/03 14:07:58;;;;;;;2.67;0.38;;;;;;;;;;4974498;28;20038;-78
2023/08/03 14:10:24;;;;;;;1.88;0.50;;;;;;;;;;4990740;28;20034;-78
2023/08/03 14:12:51;;;;;;;1.00;0.30;;;;;;;;;;4956263;28;20475;-80
2023/08/03 14:15:19;;;;;;;2.42;0.50;;;;;;;;;;4954456;28;20451;-78
2023/08/03 14:17:45;;;;;;;5.20;0.70;;;;;;;;;;4973138;28;20034;-78
2023/08/03 14:20:11;;;;;;;2.33;0.57;;;;;;;;;;4975320;28;20394;-78
2023/08/03 14:22:36;;;;;;;1.02;0.40;;;;;;;;;;4964380;28;20030;-79
2023/08/03 14:25:03;;;;;;;1.02;0.45;;;;;;;;;;4972740;28;20383;-79
2023/08/03 14:27:28;;;;;;;1.13;0.43;;;;;;;;;;4972587;28;20074;-79
2023/08/03 14:29:54;;;;;;;3.72;0.45;;;;;;;;;;4956827;28;20035;-79
2023/08/03 14:32:19;;;;;;;1.70;0.30;;;;;;;;;;4973557;28;20097;-80
2023/08/03 14:34:47;;;;;;;4.32;0.47;;;;;;;;;;5026410;28;20424;-79
2023/08/03 14:37:13;;;;;;;1.02;0.43;;;;;;;;;;5011081;28;20481;-80
2023/08/03 14:39:39;;;;;;;2.42;0.43;;;;;;;;;;4999570;28;20045;-79
2023/08/03 14:42:08;;;;;;;0.40;0.28;;;;;;;;;;5001041;28;20557;-79
2023/08/03 14:44:34;;;;;;;0.85;0.40;;;;;;;;;;5009727;28;20030;-78